Log in

NASDAQ:CINFCincinnati Financial Institutional Ownership

$81.67
+2.22 (+2.79 %)
(As of 08/7/2020 04:00 PM ET)
Add
Compare
Today's Range
$79.06
Now: $81.67
$81.93
50-Day Range
$62.00
MA: $71.77
$83.44
52-Week Range
$46.07
Now: $81.67
$118.19
Volume728,974 shs
Average Volume1.14 million shs
Market Capitalization$13.14 billion
P/E Ratio24.38
Dividend Yield2.94%
Beta0.58

Institutional Ownership

Institutional Ownership Changes (13F Filings) for Cincinnati Financial (NASDAQ:CINF)

Institutional Ownership Percentage: 62.73%

Institutional Buying and Selling by Quarter


Cincinnati Financial (NASDAQ CINF) Institutional Buying and Selling

Reporting DateHedge FundShares HeldMarket Value% of PortfolioQuarterly Change in SharesOwnership in Company
8/7/2020Truepoint Inc.96,537$6.18M0.5%-8.0%0.060%
8/7/2020State Board of Administration of Florida Retirement System221,087$14.16M0.0%+2.2%0.137%
8/7/2020Rafferty Asset Management LLC30,922$1.98M0.0%+443.3%0.019%
8/7/2020Fisher Asset Management LLC9,498$0.61M0.0%-2.1%0.006%
8/7/2020Trexquant Investment LP3,526$0.23M0.0%-84.5%0.002%
8/7/2020PNC Financial Services Group Inc.426,935$27.34M0.0%-3.4%0.265%
8/7/2020New York State Common Retirement Fund321,749$20.60M0.0%-11.8%0.200%
8/7/2020CSat Investment Advisory L.P.2,805$0.18M0.0%+476.0%0.002%
8/7/2020US Bancorp DE670,419$42.93M0.1%-1.2%0.417%
8/6/2020Steward Partners Investment Advisory LLC4,307$0.28M0.0%+108.8%0.003%
8/6/2020New Mexico Educational Retirement Board10,187$0.65M0.0%+6.3%0.006%
8/6/2020Independent Advisor Alliance16,546$1.06M0.1%-32.9%0.010%
8/6/2020Sawtooth Solutions LLC15,927$1.02M0.0%N/A0.010%
8/6/2020KAMES CAPITAL plc104,979$6.72M0.2%-18.2%0.065%
8/6/2020Mid Atlantic Financial Management Inc. ADV16,826$1.08M0.1%+60.1%0.010%
8/6/2020Mitsubishi UFJ Kokusai Asset Management Co. Ltd.90,263$5.78M0.1%+13.5%0.056%
8/6/2020Andra AP fonden86,600$5.55M0.2%+19.6%0.054%
8/5/2020Principal Financial Group Inc.224,693$14.39M0.0%+3.5%0.140%
8/5/2020Lighthouse Financial Advisors Inc.23,943$1.54M0.7%+8.4%0.015%
8/5/2020Bessemer Group Inc.19,318$1.24M0.0%+61.5%0.012%
8/5/2020IFP Advisors Inc834$53K0.0%-24.7%0.001%
8/5/2020Russell Investments Group Ltd.188,150$12.03M0.0%-9.3%0.117%
8/5/2020Fifth Third Bancorp652,928$41.81M0.3%-3.7%0.406%
8/5/2020Swiss National Bank612,491$39.22M0.0%+1.7%0.381%
8/5/2020Picton Mahoney Asset Management12,300$0.79M0.0%N/A0.008%
8/5/2020AE Wealth Management LLC18,262$1.17M0.0%+57.6%0.011%
8/5/2020United Fire Group Inc.250,776$16.06M7.8%-19.3%0.156%
8/5/2020Unigestion Holding SA3,430$0.22M0.0%-87.7%0.002%
8/5/2020BI Asset Management Fondsmaeglerselskab A S22,916$1.47M0.1%N/A0.014%
8/4/2020DekaBank Deutsche Girozentrale12,341$0.78M0.0%-4.0%0.008%
8/4/2020Arizona State Retirement System36,001$2.31M0.0%-53.7%0.022%
8/4/2020Twin Capital Management Inc.28,215$1.81M0.2%-21.5%0.018%
8/4/2020Optimal Asset Management Inc.8,137$0.52M0.1%N/A0.005%
8/4/2020Texas Permanent School Fund26,589$1.70M0.0%-3.6%0.017%
8/4/2020Hartford Investment Management Co.16,347$1.05M0.0%-63.5%0.010%
8/3/2020ProShare Advisors LLC1,036,055$66.34M0.4%+3.7%0.644%
8/3/2020Illinois Municipal Retirement Fund10,931$0.70M0.3%N/A0.007%
8/3/2020Cadence Capital Management LLC3,956$0.25M0.0%-6.9%0.002%
8/3/2020Bartlett & Co. LLC51,627$3.31M0.1%+1.2%0.032%
8/3/2020Kornitzer Capital Management Inc. KS223,811$14.33M0.3%-1.3%0.139%
8/3/2020Horan Capital Advisors LLC.5,040$0.32M0.2%-5.9%0.003%
8/3/2020NN Investment Partners Holdings N.V.19,507$1.25M0.0%-4.1%0.012%
7/31/2020Comerica Bank47,223$3.79M0.0%-21.8%0.029%
7/31/2020Hengehold Capital Management LLC13,268$0.85M0.2%+1.9%0.008%
7/31/2020Tillar Wenstrup Advisors LLC6,370$0.41M0.2%N/A0.004%
7/31/2020UBS Group AG241,782$15.48M0.0%+28.3%0.150%
7/31/2020Fort Washington Investment Advisors Inc. OH1,569,857$100.52M1.1%+31.4%0.976%
7/31/2020Mackay Shields LLC24,069$1.54M0.0%+3.6%0.015%
7/30/2020Park Avenue Securities LLC12,591$0.81M0.0%N/A0.008%
7/30/2020Signaturefd LLC492$31K0.0%-47.7%0.000%
7/30/2020Brinker Capital Inc.31,981$2.06M0.1%+12.2%0.020%
7/30/2020Brendel Financial Advisors LLC3,961$0.25M0.2%-83.8%0.002%
7/30/2020Huntington National Bank248,667$15.92M0.3%-1.8%0.155%
7/29/2020State of Michigan Retirement System38,541$2.47M0.0%+10.7%0.024%
7/29/2020M&T Bank Corp8,251$0.53M0.0%-7.6%0.005%
7/29/2020Koshinski Asset Management Inc.6,137$0.39M0.1%+43.7%0.004%
7/29/2020Sciencast Management LP3,400$0.25M0.1%N/A0.002%
7/29/2020Pacer Advisors Inc.12,777$0.82M0.0%N/A0.008%
7/29/2020Schulhoff & Co. Inc.55,450$3.55M2.1%-5.0%0.034%
7/29/2020GWM Advisors LLC3,540$0.23M0.0%-42.5%0.002%
7/28/2020DAVENPORT & Co LLC3,142$0.20M0.0%N/A0.002%
7/28/2020CIBC Asset Management Inc24,357$1.56M0.0%+3.9%0.015%
7/28/2020Raymond James & Associates80,449$5.15M0.0%+5.4%0.050%
7/28/2020Lenox Wealth Management Inc.6,265$0.40M0.1%+3.5%0.004%
7/28/2020Zurcher Kantonalbank Zurich Cantonalbank33,396$2.14M0.0%-14.6%0.021%
7/27/2020Cambridge Investment Research Advisors Inc.50,387$3.23M0.0%+9.9%0.031%
7/27/2020Nisa Investment Advisors LLC70,729$4.53M0.0%-5.8%0.044%
7/27/2020Rocky Mountain Advisers LLC2,533$0.16M0.4%+8.6%0.002%
7/27/2020Nissay Asset Management Corp Japan ADV15,654$1M0.0%+2.8%0.010%
7/27/2020MAI Capital Management14,661$0.94M0.0%+5.1%0.009%
7/27/2020OLD National Bancorp IN36,160$2.32M0.1%-0.8%0.022%
7/27/2020Donaldson Capital Management LLC478,244$30.62M2.2%+14,972.3%0.297%
7/27/2020Sumitomo Mitsui Trust Holdings Inc.932,592$59.71M0.0%+0.3%0.580%
7/24/2020Community Financial Services Group LLC32,928$2.11M0.8%+3.9%0.020%
7/24/2020NN Investment Partners Holdings N.V.20,190$1.29M0.0%-0.7%0.013%
7/24/2020Dupont Capital Management Corp7,164$0.46M0.0%+8.7%0.004%
7/24/2020World Asset Management Inc5,746$0.37M0.0%-24.8%0.004%
7/23/2020Candriam Luxembourg S.C.A.11,407$0.73M0.0%-25.2%0.007%
7/23/2020Strs Ohio23,392$1.50M0.0%-15.4%0.015%
7/23/2020Monarch Capital Management Inc.38,656$2.48M0.9%-0.9%0.024%
7/23/2020Creative Planning15,166$0.97M0.0%+6.9%0.009%
7/23/2020Janney Montgomery Scott LLC79,415$5.09M0.0%+46.1%0.049%
7/23/2020Boston Trust Walden Corp416,452$26.67M0.4%-6.7%0.259%
7/23/2020First Merchants Corp6,779$0.43M0.0%-6.9%0.004%
7/23/2020Creative Financial Designs Inc. ADV4,180$0.27M0.1%+73.6%0.003%
7/22/2020Pettinga Financial Advisors LLC54,403$3.48M1.7%+0.5%0.034%
7/22/2020First Trust Advisors LP1,055,776$67.60M0.1%+70.9%0.657%
7/22/2020Livingston Group Asset Management CO operating as Southport Capital Management16,848$1.08M0.5%+2.5%0.010%
7/22/2020Welch Group LLC346,935$22.21M2.1%+12.0%0.216%
7/22/2020Randolph Co Inc102,844$6.59M1.2%N/A0.064%
7/22/2020Railway Pension Investments Ltd77,200$4.94M0.1%+3.6%0.048%
7/22/2020CWM LLC1,072$69K0.0%-29.4%0.001%
7/22/2020FDx Advisors Inc.6,786$0.44M0.0%+2.5%0.004%
7/21/2020Oregon Public Employees Retirement Fund13,428$0.86M0.0%-25.5%0.008%
7/21/2020BBVA USA Bancshares Inc.4,359$0.28M0.0%-12.8%0.003%
7/21/2020Sugarloaf Wealth Management LLC1,782$0.11M0.0%-14.4%0.001%
7/20/2020Mitchell Sinkler & Starr PA7,510$0.48M0.5%-16.6%0.005%
7/20/2020Foster & Motley Inc.4,628$0.30M0.0%-9.9%0.003%
7/20/2020Robeco Institutional Asset Management B.V.64,582$4.14M0.0%-94.1%0.040%
7/20/2020SG Americas Securities LLC8,610$0.55M0.0%-84.8%0.005%
(Data available from 1/1/2016 forward)
This page was last updated on 8/10/2020 by MarketBeat.com Staff

Enter your email address below to receive a concise daily summary of analysts' upgrades, downgrades and new coverage with MarketBeat.com's FREE daily email newsletter.